sensor_id;sensor_type;location;lat;lon;timestamp;P1;durP1;ratioP1;P2;durP2;ratioP2
14377;SDS011;7272;53.668;9.578;2024-02-15T00:00:46;23.33;;;14.57;;
14377;SDS011;7272;53.668;9.578;2024-02-15T00:03:47;15.73;;;14.03;;
14377;SDS011;7272;53.668;9.578;2024-02-15T00:06:49;19.40;;;14.03;;
14377;SDS011;7272;53.668;9.578;2024-02-15T00:09:50;19.87;;;14.13;;
14377;SDS011;7272;53.668;9.578;2024-02-15T00:12:53;21.83;;;14.37;;
14377;SDS011;7272;53.668;9.578;2024-02-15T00:15:55;15.60;;;12.07;;
14377;SDS011;7272;53.668;9.578;2024-02-15T00:18:56;16.63;;;12.80;;
14377;SDS011;7272;53.668;9.578;2024-02-15T00:21:57;19.57;;;12.63;;
14377;SDS011;7272;53.668;9.578;2024-02-15T00:24:59;17.13;;;11.47;;
14377;SDS011;7272;53.668;9.578;2024-02-15T00:28:01;14.07;;;11.40;;
14377;SDS011;7272;53.668;9.578;2024-02-15T00:31:02;14.20;;;11.60;;
14377;SDS011;7272;53.668;9.578;2024-02-15T00:34:04;13.47;;;10.90;;
14377;SDS011;7272;53.668;9.578;2024-02-15T00:37:06;11.83;;;10.63;;
14377;SDS011;7272;53.668;9.578;2024-02-15T00:40:08;13.57;;;11.57;;
14377;SDS011;7272;53.668;9.578;2024-02-15T00:43:10;13.60;;;11.27;;
14377;SDS011;7272;53.668;9.578;2024-02-15T00:46:11;13.63;;;11.93;;
14377;SDS011;7272;53.668;9.578;2024-02-15T00:49:12;16.40;;;12.90;;
14377;SDS011;7272;53.668;9.578;2024-02-15T00:52:13;14.93;;;12.03;;
14377;SDS011;7272;53.668;9.578;2024-02-15T00:55:14;11.87;;;10.13;;
14377;SDS011;7272;53.668;9.578;2024-02-15T00:58:17;15.27;;;11.50;;
14377;SDS011;7272;53.668;9.578;2024-02-15T01:01:18;13.87;;;10.80;;
14377;SDS011;7272;53.668;9.578;2024-02-15T01:04:20;18.03;;;12.40;;
14377;SDS011;7272;53.668;9.578;2024-02-15T01:07:21;12.73;;;10.90;;
14377;SDS011;7272;53.668;9.578;2024-02-15T01:10:22;14.33;;;10.23;;
14377;SDS011;7272;53.668;9.578;2024-02-15T01:13:25;17.57;;;12.17;;
14377;SDS011;7272;53.668;9.578;2024-02-15T01:16:26;13.13;;;11.40;;
14377;SDS011;7272;53.668;9.578;2024-02-15T01:19:27;12.63;;;10.87;;
14377;SDS011;7272;53.668;9.578;2024-02-15T01:22:29;13.60;;;11.37;;
14377;SDS011;7272;53.668;9.578;2024-02-15T01:25:30;15.27;;;11.40;;
14377;SDS011;7272;53.668;9.578;2024-02-15T01:28:32;15.27;;;12.07;;
14377;SDS011;7272;53.668;9.578;2024-02-15T01:31:33;15.77;;;11.43;;
14377;SDS011;7272;53.668;9.578;2024-02-15T01:34:34;14.83;;;11.17;;
14377;SDS011;7272;53.668;9.578;2024-02-15T01:37:35;13.93;;;11.60;;
14377;SDS011;7272;53.668;9.578;2024-02-15T01:40:37;17.27;;;12.23;;
14377;SDS011;7272;53.668;9.578;2024-02-15T01:43:42;15.67;;;11.60;;
14377;SDS011;7272;53.668;9.578;2024-02-15T01:46:44;15.37;;;11.20;;
14377;SDS011;7272;53.668;9.578;2024-02-15T01:49:47;15.90;;;11.57;;
14377;SDS011;7272;53.668;9.578;2024-02-15T01:52:49;16.07;;;12.63;;
14377;SDS011;7272;53.668;9.578;2024-02-15T01:55:55;17.43;;;12.67;;
14377;SDS011;7272;53.668;9.578;2024-02-15T01:58:58;13.87;;;10.97;;
14377;SDS011;7272;53.668;9.578;2024-02-15T02:02:00;15.03;;;11.73;;
14377;SDS011;7272;53.668;9.578;2024-02-15T02:05:01;16.80;;;12.40;;
14377;SDS011;7272;53.668;9.578;2024-02-15T02:08:03;14.90;;;11.37;;
14377;SDS011;7272;53.668;9.578;2024-02-15T02:11:09;14.70;;;11.67;;
14377;SDS011;7272;53.668;9.578;2024-02-15T02:14:11;12.57;;;10.90;;
14377;SDS011;7272;53.668;9.578;2024-02-15T02:17:12;15.17;;;12.47;;
14377;SDS011;7272;53.668;9.578;2024-02-15T02:20:14;13.13;;;11.70;;
14377;SDS011;7272;53.668;9.578;2024-02-15T02:23:17;13.27;;;11.07;;
14377;SDS011;7272;53.668;9.578;2024-02-15T02:26:21;12.90;;;11.10;;
14377;SDS011;7272;53.668;9.578;2024-02-15T02:29:22;13.70;;;10.97;;
14377;SDS011;7272;53.668;9.578;2024-02-15T02:32:23;17.50;;;12.40;;
14377;SDS011;7272;53.668;9.578;2024-02-15T02:35:25;15.10;;;11.53;;
14377;SDS011;7272;53.668;9.578;2024-02-15T02:38:27;16.20;;;12.30;;
14377;SDS011;7272;53.668;9.578;2024-02-15T02:41:29;15.63;;;11.77;;
14377;SDS011;7272;53.668;9.578;2024-02-15T02:44:30;15.73;;;12.03;;
14377;SDS011;7272;53.668;9.578;2024-02-15T02:47:31;14.40;;;12.13;;
14377;SDS011;7272;53.668;9.578;2024-02-15T02:50:32;13.73;;;11.33;;
14377;SDS011;7272;53.668;9.578;2024-02-15T02:53:34;14.27;;;11.37;;
14377;SDS011;7272;53.668;9.578;2024-02-15T02:56:36;15.20;;;11.17;;
14377;SDS011;7272;53.668;9.578;2024-02-15T02:59:37;14.17;;;11.30;;
14377;SDS011;7272;53.668;9.578;2024-02-15T03:02:40;21.87;;;12.00;;
14377;SDS011;7272;53.668;9.578;2024-02-15T03:05:41;13.20;;;11.77;;
14377;SDS011;7272;53.668;9.578;2024-02-15T03:08:42;16.60;;;11.80;;
14377;SDS011;7272;53.668;9.578;2024-02-15T03:11:45;14.67;;;11.53;;
14377;SDS011;7272;53.668;9.578;2024-02-15T03:14:46;14.07;;;11.37;;
14377;SDS011;7272;53.668;9.578;2024-02-15T03:17:48;14.77;;;11.50;;
14377;SDS011;7272;53.668;9.578;2024-02-15T03:20:49;14.07;;;11.20;;
14377;SDS011;7272;53.668;9.578;2024-02-15T03:23:50;13.67;;;11.33;;
14377;SDS011;7272;53.668;9.578;2024-02-15T03:26:52;16.37;;;12.23;;
14377;SDS011;7272;53.668;9.578;2024-02-15T03:29:55;15.20;;;12.57;;
14377;SDS011;7272;53.668;9.578;2024-02-15T03:32:57;17.57;;;12.20;;
14377;SDS011;7272;53.668;9.578;2024-02-15T03:35:59;14.13;;;11.77;;
14377;SDS011;7272;53.668;9.578;2024-02-15T03:39:00;19.53;;;13.70;;
14377;SDS011;7272;53.668;9.578;2024-02-15T03:42:03;19.23;;;13.93;;
14377;SDS011;7272;53.668;9.578;2024-02-15T03:45:04;19.63;;;14.23;;
14377;SDS011;7272;53.668;9.578;2024-02-15T03:48:06;17.70;;;14.43;;
14377;SDS011;7272;53.668;9.578;2024-02-15T03:51:08;19.27;;;14.10;;
14377;SDS011;7272;53.668;9.578;2024-02-15T03:54:09;18.77;;;13.87;;
14377;SDS011;7272;53.668;9.578;2024-02-15T03:57:11;18.43;;;14.57;;
14377;SDS011;7272;53.668;9.578;2024-02-15T04:00:12;21.60;;;14.27;;
14377;SDS011;7272;53.668;9.578;2024-02-15T04:03:15;20.23;;;15.23;;
14377;SDS011;7272;53.668;9.578;2024-02-15T04:06:16;18.77;;;14.43;;
14377;SDS011;7272;53.668;9.578;2024-02-15T04:09:17;24.03;;;15.97;;
14377;SDS011;7272;53.668;9.578;2024-02-15T04:12:21;20.37;;;15.00;;
14377;SDS011;7272;53.668;9.578;2024-02-15T04:15:22;18.50;;;13.87;;
14377;SDS011;7272;53.668;9.578;2024-02-15T04:18:23;21.43;;;15.13;;
14377;SDS011;7272;53.668;9.578;2024-02-15T04:21:24;19.43;;;15.60;;
14377;SDS011;7272;53.668;9.578;2024-02-15T04:24:27;19.87;;;15.33;;
14377;SDS011;7272;53.668;9.578;2024-02-15T04:27:29;19.83;;;16.10;;
14377;SDS011;7272;53.668;9.578;2024-02-15T04:30:30;19.10;;;14.20;;
14377;SDS011;7272;53.668;9.578;2024-02-15T04:33:32;22.53;;;16.63;;
14377;SDS011;7272;53.668;9.578;2024-02-15T04:36:33;21.33;;;15.70;;
14377;SDS011;7272;53.668;9.578;2024-02-15T04:39:34;20.00;;;14.83;;
14377;SDS011;7272;53.668;9.578;2024-02-15T04:42:36;23.73;;;16.33;;
14377;SDS011;7272;53.668;9.578;2024-02-15T04:45:39;22.43;;;15.73;;
14377;SDS011;7272;53.668;9.578;2024-02-15T04:48:41;21.63;;;16.10;;
14377;SDS011;7272;53.668;9.578;2024-02-15T04:51:43;24.80;;;16.27;;
14377;SDS011;7272;53.668;9.578;2024-02-15T04:54:44;19.40;;;14.50;;
14377;SDS011;7272;53.668;9.578;2024-02-15T04:57:46;27.27;;;17.63;;
14377;SDS011;7272;53.668;9.578;2024-02-15T05:00:49;25.90;;;17.33;;
14377;SDS011;7272;53.668;9.578;2024-02-15T05:03:53;19.63;;;15.53;;
14377;SDS011;7272;53.668;9.578;2024-02-15T05:06:55;19.60;;;16.30;;
14377;SDS011;7272;53.668;9.578;2024-02-15T05:09:57;18.50;;;15.43;;
14377;SDS011;7272;53.668;9.578;2024-02-15T05:12:58;19.87;;;14.87;;
14377;SDS011;7272;53.668;9.578;2024-02-15T05:16:01;22.00;;;15.30;;
14377;SDS011;7272;53.668;9.578;2024-02-15T05:19:02;22.50;;;15.53;;
14377;SDS011;7272;53.668;9.578;2024-02-15T05:22:05;28.37;;;16.93;;
14377;SDS011;7272;53.668;9.578;2024-02-15T05:25:07;21.63;;;15.20;;
14377;SDS011;7272;53.668;9.578;2024-02-15T05:28:09;24.13;;;15.13;;
14377;SDS011;7272;53.668;9.578;2024-02-15T05:31:11;24.80;;;17.47;;
14377;SDS011;7272;53.668;9.578;2024-02-15T05:34:14;22.53;;;16.60;;
14377;SDS011;7272;53.668;9.578;2024-02-15T05:37:15;26.60;;;16.53;;
14377;SDS011;7272;53.668;9.578;2024-02-15T05:40:17;22.97;;;17.07;;
14377;SDS011;7272;53.668;9.578;2024-02-15T05:43:20;25.67;;;16.73;;
14377;SDS011;7272;53.668;9.578;2024-02-15T05:46:21;28.83;;;19.10;;
14377;SDS011;7272;53.668;9.578;2024-02-15T05:49:23;25.20;;;17.30;;
14377;SDS011;7272;53.668;9.578;2024-02-15T05:52:25;27.97;;;18.90;;
14377;SDS011;7272;53.668;9.578;2024-02-15T05:55:26;28.93;;;19.67;;
14377;SDS011;7272;53.668;9.578;2024-02-15T05:58:32;25.87;;;18.00;;
14377;SDS011;7272;53.668;9.578;2024-02-15T06:01:33;29.17;;;18.70;;
14377;SDS011;7272;53.668;9.578;2024-02-15T06:04:35;28.63;;;19.10;;
14377;SDS011;7272;53.668;9.578;2024-02-15T06:07:36;22.93;;;16.87;;
14377;SDS011;7272;53.668;9.578;2024-02-15T06:10:37;30.37;;;18.93;;
14377;SDS011;7272;53.668;9.578;2024-02-15T06:13:39;21.87;;;16.77;;
14377;SDS011;7272;53.668;9.578;2024-02-15T06:16:42;20.93;;;15.67;;
14377;SDS011;7272;53.668;9.578;2024-02-15T06:19:44;20.90;;;15.63;;
14377;SDS011;7272;53.668;9.578;2024-02-15T06:22:45;21.27;;;16.27;;
14377;SDS011;7272;53.668;9.578;2024-02-15T06:25:46;22.80;;;15.70;;
14377;SDS011;7272;53.668;9.578;2024-02-15T06:28:48;21.53;;;16.50;;
14377;SDS011;7272;53.668;9.578;2024-02-15T06:32:08;24.60;;;16.43;;
14377;SDS011;7272;53.668;9.578;2024-02-15T06:35:27;20.83;;;16.50;;
14377;SDS011;7272;53.668;9.578;2024-02-15T06:38:47;19.73;;;15.47;;
14377;SDS011;7272;53.668;9.578;2024-02-15T06:42:06;19.03;;;14.73;;
14377;SDS011;7272;53.668;9.578;2024-02-15T06:45:08;20.07;;;14.93;;
14377;SDS011;7272;53.668;9.578;2024-02-15T06:48:10;18.47;;;13.73;;
14377;SDS011;7272;53.668;9.578;2024-02-15T06:51:12;17.73;;;14.80;;
14377;SDS011;7272;53.668;9.578;2024-02-15T06:54:15;15.53;;;12.83;;
14377;SDS011;7272;53.668;9.578;2024-02-15T06:57:18;13.53;;;12.00;;
14377;SDS011;7272;53.668;9.578;2024-02-15T07:00:20;16.63;;;13.30;;
14377;SDS011;7272;53.668;9.578;2024-02-15T07:03:21;14.53;;;12.37;;
14377;SDS011;7272;53.668;9.578;2024-02-15T07:06:24;13.23;;;11.77;;
14377;SDS011;7272;53.668;9.578;2024-02-15T07:09:26;15.50;;;12.10;;
14377;SDS011;7272;53.668;9.578;2024-02-15T07:12:27;17.53;;;12.40;;
14377;SDS011;7272;53.668;9.578;2024-02-15T07:15:29;14.57;;;12.50;;
14377;SDS011;7272;53.668;9.578;2024-02-15T07:18:32;13.87;;;11.00;;
14377;SDS011;7272;53.668;9.578;2024-02-15T07:21:33;15.67;;;12.00;;
14377;SDS011;7272;53.668;9.578;2024-02-15T07:24:34;15.40;;;10.73;;
14377;SDS011;7272;53.668;9.578;2024-02-15T07:27:38;12.77;;;11.17;;
14377;SDS011;7272;53.668;9.578;2024-02-15T07:30:40;13.93;;;10.70;;
14377;SDS011;7272;53.668;9.578;2024-02-15T07:33:41;13.27;;;11.47;;
14377;SDS011;7272;53.668;9.578;2024-02-15T07:36:43;13.63;;;10.90;;
14377;SDS011;7272;53.668;9.578;2024-02-15T07:39:45;14.70;;;11.33;;
14377;SDS011;7272;53.668;9.578;2024-02-15T07:42:47;14.63;;;10.73;;
14377;SDS011;7272;53.668;9.578;2024-02-15T07:45:49;13.60;;;10.07;;
14377;SDS011;7272;53.668;9.578;2024-02-15T07:48:50;14.03;;;10.37;;
14377;SDS011;7272;53.668;9.578;2024-02-15T07:51:51;13.53;;;10.67;;
14377;SDS011;7272;53.668;9.578;2024-02-15T07:54:53;14.00;;;10.03;;
14377;SDS011;7272;53.668;9.578;2024-02-15T07:57:54;11.60;;;10.00;;
14377;SDS011;7272;53.668;9.578;2024-02-15T08:00:56;13.00;;;10.43;;
14377;SDS011;7272;53.668;9.578;2024-02-15T08:03:59;15.20;;;10.93;;
14377;SDS011;7272;53.668;9.578;2024-02-15T08:07:01;14.13;;;10.77;;
14377;SDS011;7272;53.668;9.578;2024-02-15T08:10:02;13.37;;;10.47;;
14377;SDS011;7272;53.668;9.578;2024-02-15T08:13:04;15.50;;;10.70;;
14377;SDS011;7272;53.668;9.578;2024-02-15T08:16:06;17.03;;;11.10;;
14377;SDS011;7272;53.668;9.578;2024-02-15T08:19:08;15.50;;;10.77;;
14377;SDS011;7272;53.668;9.578;2024-02-15T08:22:09;15.10;;;10.63;;
14377;SDS011;7272;53.668;9.578;2024-02-15T08:25:10;13.37;;;9.90;;
14377;SDS011;7272;53.668;9.578;2024-02-15T08:28:13;13.37;;;11.07;;
14377;SDS011;7272;53.668;9.578;2024-02-15T08:31:15;13.93;;;10.60;;
14377;SDS011;7272;53.668;9.578;2024-02-15T08:34:17;16.63;;;12.23;;
14377;SDS011;7272;53.668;9.578;2024-02-15T08:37:20;21.80;;;12.67;;
14377;SDS011;7272;53.668;9.578;2024-02-15T08:40:22;16.83;;;12.00;;
14377;SDS011;7272;53.668;9.578;2024-02-15T08:43:25;16.33;;;11.77;;
14377;SDS011;7272;53.668;9.578;2024-02-15T08:46:27;20.43;;;12.83;;
14377;SDS011;7272;53.668;9.578;2024-02-15T08:49:28;20.47;;;13.50;;
14377;SDS011;7272;53.668;9.578;2024-02-15T08:52:31;16.70;;;12.13;;
14377;SDS011;7272;53.668;9.578;2024-02-15T08:55:32;20.37;;;13.17;;
14377;SDS011;7272;53.668;9.578;2024-02-15T08:58:35;17.53;;;11.03;;
14377;SDS011;7272;53.668;9.578;2024-02-15T09:01:39;16.63;;;11.50;;
14377;SDS011;7272;53.668;9.578;2024-02-15T09:04:40;16.37;;;11.23;;
14377;SDS011;7272;53.668;9.578;2024-02-15T09:07:42;17.90;;;12.30;;
14377;SDS011;7272;53.668;9.578;2024-02-15T09:10:44;15.43;;;11.70;;
14377;SDS011;7272;53.668;9.578;2024-02-15T09:13:45;17.83;;;12.63;;
14377;SDS011;7272;53.668;9.578;2024-02-15T09:16:48;14.73;;;10.77;;
14377;SDS011;7272;53.668;9.578;2024-02-15T09:19:49;16.87;;;12.20;;
14377;SDS011;7272;53.668;9.578;2024-02-15T09:22:51;16.53;;;12.47;;
14377;SDS011;7272;53.668;9.578;2024-02-15T09:25:52;21.63;;;14.57;;
14377;SDS011;7272;53.668;9.578;2024-02-15T09:28:54;18.80;;;12.20;;
14377;SDS011;7272;53.668;9.578;2024-02-15T09:31:55;17.77;;;13.27;;
14377;SDS011;7272;53.668;9.578;2024-02-15T09:34:57;20.37;;;13.70;;
14377;SDS011;7272;53.668;9.578;2024-02-15T09:37:58;21.63;;;14.20;;
14377;SDS011;7272;53.668;9.578;2024-02-15T09:40:59;22.10;;;14.93;;
14377;SDS011;7272;53.668;9.578;2024-02-15T09:44:00;20.40;;;14.87;;
14377;SDS011;7272;53.668;9.578;2024-02-15T09:47:04;21.03;;;13.97;;
14377;SDS011;7272;53.668;9.578;2024-02-15T09:50:06;21.10;;;15.13;;
14377;SDS011;7272;53.668;9.578;2024-02-15T09:53:09;15.67;;;12.77;;
14377;SDS011;7272;53.668;9.578;2024-02-15T09:56:10;17.30;;;14.80;;
14377;SDS011;7272;53.668;9.578;2024-02-15T09:59:13;22.33;;;14.57;;
14377;SDS011;7272;53.668;9.578;2024-02-15T10:02:15;17.63;;;13.63;;
14377;SDS011;7272;53.668;9.578;2024-02-15T10:05:17;17.57;;;14.27;;
14377;SDS011;7272;53.668;9.578;2024-02-15T10:08:18;20.77;;;14.87;;
14377;SDS011;7272;53.668;9.578;2024-02-15T10:11:22;20.70;;;15.73;;
14377;SDS011;7272;53.668;9.578;2024-02-15T10:14:23;18.23;;;13.87;;
14377;SDS011;7272;53.668;9.578;2024-02-15T10:17:26;18.70;;;15.10;;
14377;SDS011;7272;53.668;9.578;2024-02-15T10:20:29;17.27;;;14.47;;
14377;SDS011;7272;53.668;9.578;2024-02-15T10:23:30;20.50;;;15.27;;
14377;SDS011;7272;53.668;9.578;2024-02-15T10:26:31;18.73;;;15.03;;
14377;SDS011;7272;53.668;9.578;2024-02-15T10:29:33;19.37;;;16.10;;
14377;SDS011;7272;53.668;9.578;2024-02-15T10:32:35;18.77;;;14.70;;
14377;SDS011;7272;53.668;9.578;2024-02-15T10:35:36;19.77;;;15.17;;
14377;SDS011;7272;53.668;9.578;2024-02-15T10:38:37;22.97;;;16.47;;
14377;SDS011;7272;53.668;9.578;2024-02-15T10:41:39;20.20;;;16.50;;
14377;SDS011;7272;53.668;9.578;2024-02-15T10:44:40;18.10;;;16.17;;
14377;SDS011;7272;53.668;9.578;2024-02-15T10:47:44;16.93;;;14.43;;
14377;SDS011;7272;53.668;9.578;2024-02-15T10:50:46;17.17;;;14.67;;
14377;SDS011;7272;53.668;9.578;2024-02-15T10:53:56;16.43;;;14.40;;
14377;SDS011;7272;53.668;9.578;2024-02-15T10:57:04;18.50;;;15.17;;
14377;SDS011;7272;53.668;9.578;2024-02-15T11:00:07;18.60;;;14.87;;
14377;SDS011;7272;53.668;9.578;2024-02-15T11:03:12;18.20;;;15.73;;
14377;SDS011;7272;53.668;9.578;2024-02-15T11:06:20;17.53;;;14.93;;
14377;SDS011;7272;53.668;9.578;2024-02-15T11:09:24;17.43;;;14.37;;
14377;SDS011;7272;53.668;9.578;2024-02-15T11:12:27;19.83;;;16.37;;
14377;SDS011;7272;53.668;9.578;2024-02-15T11:15:39;16.37;;;14.50;;
14377;SDS011;7272;53.668;9.578;2024-02-15T11:18:43;16.03;;;14.27;;
14377;SDS011;7272;53.668;9.578;2024-02-15T11:21:53;15.53;;;14.00;;
14377;SDS011;7272;53.668;9.578;2024-02-15T11:24:54;18.27;;;15.20;;
14377;SDS011;7272;53.668;9.578;2024-02-15T11:27:57;18.77;;;16.13;;
14377;SDS011;7272;53.668;9.578;2024-02-15T11:30:58;20.07;;;16.17;;
14377;SDS011;7272;53.668;9.578;2024-02-15T11:34:00;22.17;;;18.03;;
14377;SDS011;7272;53.668;9.578;2024-02-15T11:37:53;18.87;;;15.27;;
14377;SDS011;7272;53.668;9.578;2024-02-15T11:41:04;23.00;;;17.70;;
14377;SDS011;7272;53.668;9.578;2024-02-15T11:44:06;24.20;;;19.03;;
14377;SDS011;7272;53.668;9.578;2024-02-15T11:47:07;22.13;;;17.13;;
14377;SDS011;7272;53.668;9.578;2024-02-15T11:50:11;22.10;;;18.23;;
14377;SDS011;7272;53.668;9.578;2024-02-15T11:53:12;20.40;;;17.70;;
14377;SDS011;7272;53.668;9.578;2024-02-15T11:56:13;22.93;;;18.70;;
14377;SDS011;7272;53.668;9.578;2024-02-15T11:59:16;23.80;;;19.80;;
14377;SDS011;7272;53.668;9.578;2024-02-15T12:02:31;25.97;;;19.77;;
14377;SDS011;7272;53.668;9.578;2024-02-15T12:05:51;30.33;;;21.03;;
14377;SDS011;7272;53.668;9.578;2024-02-15T12:09:11;25.67;;;20.53;;
14377;SDS011;7272;53.668;9.578;2024-02-15T12:12:31;18.87;;;16.73;;
14377;SDS011;7272;53.668;9.578;2024-02-15T12:15:57;23.23;;;18.00;;
14377;SDS011;7272;53.668;9.578;2024-02-15T12:19:17;19.93;;;17.90;;
14377;SDS011;7272;53.668;9.578;2024-02-15T12:22:19;23.63;;;18.53;;
14377;SDS011;7272;53.668;9.578;2024-02-15T12:25:22;22.67;;;18.10;;
14377;SDS011;7272;53.668;9.578;2024-02-15T12:28:24;20.80;;;16.43;;
14377;SDS011;7272;53.668;9.578;2024-02-15T12:31:25;23.03;;;17.30;;
14377;SDS011;7272;53.668;9.578;2024-02-15T12:34:27;18.80;;;16.80;;
14377;SDS011;7272;53.668;9.578;2024-02-15T12:37:28;16.40;;;14.40;;
14377;SDS011;7272;53.668;9.578;2024-02-15T12:40:30;18.20;;;16.13;;
14377;SDS011;7272;53.668;9.578;2024-02-15T12:43:32;19.00;;;16.97;;
14377;SDS011;7272;53.668;9.578;2024-02-15T12:46:33;18.13;;;15.77;;
14377;SDS011;7272;53.668;9.578;2024-02-15T12:49:35;15.00;;;13.50;;
14377;SDS011;7272;53.668;9.578;2024-02-15T12:52:37;16.10;;;14.40;;
14377;SDS011;7272;53.668;9.578;2024-02-15T12:55:39;18.37;;;15.83;;
14377;SDS011;7272;53.668;9.578;2024-02-15T12:58:40;14.77;;;13.37;;
14377;SDS011;7272;53.668;9.578;2024-02-15T13:01:43;16.57;;;14.50;;
14377;SDS011;7272;53.668;9.578;2024-02-15T13:04:46;15.20;;;13.70;;
14377;SDS011;7272;53.668;9.578;2024-02-15T13:07:48;15.33;;;13.77;;
14377;SDS011;7272;53.668;9.578;2024-02-15T13:10:50;14.70;;;13.27;;
14377;SDS011;7272;53.668;9.578;2024-02-15T13:13:51;16.20;;;14.50;;
14377;SDS011;7272;53.668;9.578;2024-02-15T13:16:52;15.33;;;13.80;;
14377;SDS011;7272;53.668;9.578;2024-02-15T13:19:54;15.70;;;14.27;;
14377;SDS011;7272;53.668;9.578;2024-02-15T13:23:04;16.47;;;14.87;;
14377;SDS011;7272;53.668;9.578;2024-02-15T13:26:08;16.07;;;14.43;;
14377;SDS011;7272;53.668;9.578;2024-02-15T13:29:11;14.07;;;12.67;;
14377;SDS011;7272;53.668;9.578;2024-02-15T13:32:12;15.20;;;13.80;;
14377;SDS011;7272;53.668;9.578;2024-02-15T13:35:14;14.00;;;12.60;;
14377;SDS011;7272;53.668;9.578;2024-02-15T13:38:19;13.97;;;12.73;;
14377;SDS011;7272;53.668;9.578;2024-02-15T13:41:23;14.33;;;12.87;;
14377;SDS011;7272;53.668;9.578;2024-02-15T13:44:24;15.80;;;14.20;;
14377;SDS011;7272;53.668;9.578;2024-02-15T13:47:25;14.50;;;13.17;;
14377;SDS011;7272;53.668;9.578;2024-02-15T13:50:28;15.93;;;14.37;;
14377;SDS011;7272;53.668;9.578;2024-02-15T13:53:30;16.20;;;14.53;;
14377;SDS011;7272;53.668;9.578;2024-02-15T13:56:32;15.60;;;14.10;;
14377;SDS011;7272;53.668;9.578;2024-02-15T13:59:33;15.63;;;14.03;;
14377;SDS011;7272;53.668;9.578;2024-02-15T14:02:35;16.90;;;15.30;;
14377;SDS011;7272;53.668;9.578;2024-02-15T14:05:36;16.10;;;13.63;;
14377;SDS011;7272;53.668;9.578;2024-02-15T14:08:40;18.17;;;16.10;;
14377;SDS011;7272;53.668;9.578;2024-02-15T14:11:41;16.77;;;14.97;;
14377;SDS011;7272;53.668;9.578;2024-02-15T14:14:43;15.13;;;13.63;;
14377;SDS011;7272;53.668;9.578;2024-02-15T14:17:45;19.70;;;14.80;;
14377;SDS011;7272;53.668;9.578;2024-02-15T14:20:47;17.07;;;15.50;;
14377;SDS011;7272;53.668;9.578;2024-02-15T14:23:49;16.00;;;14.53;;
14377;SDS011;7272;53.668;9.578;2024-02-15T14:26:50;16.10;;;14.57;;
14377;SDS011;7272;53.668;9.578;2024-02-15T14:29:51;15.13;;;13.73;;
14377;SDS011;7272;53.668;9.578;2024-02-15T14:33:11;16.10;;;14.50;;
14377;SDS011;7272;53.668;9.578;2024-02-15T14:36:15;16.47;;;14.93;;
14377;SDS011;7272;53.668;9.578;2024-02-15T14:39:18;15.87;;;14.23;;
14377;SDS011;7272;53.668;9.578;2024-02-15T14:42:19;15.77;;;14.27;;
14377;SDS011;7272;53.668;9.578;2024-02-15T14:45:22;15.43;;;14.00;;
14377;SDS011;7272;53.668;9.578;2024-02-15T14:48:23;15.90;;;14.33;;
14377;SDS011;7272;53.668;9.578;2024-02-15T14:51:24;14.80;;;13.40;;
14377;SDS011;7272;53.668;9.578;2024-02-15T14:54:27;16.27;;;13.97;;
14377;SDS011;7272;53.668;9.578;2024-02-15T14:57:28;17.50;;;14.20;;
14377;SDS011;7272;53.668;9.578;2024-02-15T15:00:29;17.03;;;15.03;;
14377;SDS011;7272;53.668;9.578;2024-02-15T15:03:30;16.63;;;15.00;;
14377;SDS011;7272;53.668;9.578;2024-02-15T15:06:33;13.57;;;12.27;;
14377;SDS011;7272;53.668;9.578;2024-02-15T15:09:53;15.40;;;13.93;;
14377;SDS011;7272;53.668;9.578;2024-02-15T15:13:15;16.13;;;14.63;;
14377;SDS011;7272;53.668;9.578;2024-02-15T15:16:17;17.70;;;15.87;;
14377;SDS011;7272;53.668;9.578;2024-02-15T15:19:21;14.93;;;13.47;;
14377;SDS011;7272;53.668;9.578;2024-02-15T15:22:22;14.13;;;12.70;;
14377;SDS011;7272;53.668;9.578;2024-02-15T15:25:24;15.10;;;13.77;;
14377;SDS011;7272;53.668;9.578;2024-02-15T15:28:28;15.77;;;13.73;;
14377;SDS011;7272;53.668;9.578;2024-02-15T15:31:29;14.57;;;13.17;;
14377;SDS011;7272;53.668;9.578;2024-02-15T15:34:31;14.40;;;12.87;;
14377;SDS011;7272;53.668;9.578;2024-02-15T15:37:33;15.40;;;13.90;;
14377;SDS011;7272;53.668;9.578;2024-02-15T15:40:34;14.00;;;12.70;;
14377;SDS011;7272;53.668;9.578;2024-02-15T15:43:36;14.73;;;13.43;;
14377;SDS011;7272;53.668;9.578;2024-02-15T15:46:37;15.90;;;14.30;;
14377;SDS011;7272;53.668;9.578;2024-02-15T15:49:39;13.00;;;11.70;;
14377;SDS011;7272;53.668;9.578;2024-02-15T15:52:41;15.13;;;13.70;;
14377;SDS011;7272;53.668;9.578;2024-02-15T15:55:45;15.57;;;14.13;;
14377;SDS011;7272;53.668;9.578;2024-02-15T15:58:46;15.47;;;13.97;;
14377;SDS011;7272;53.668;9.578;2024-02-15T16:01:50;14.13;;;12.73;;
14377;SDS011;7272;53.668;9.578;2024-02-15T16:04:51;13.57;;;12.17;;
14377;SDS011;7272;53.668;9.578;2024-02-15T16:07:55;13.50;;;12.37;;
14377;SDS011;7272;53.668;9.578;2024-02-15T16:10:57;14.57;;;13.17;;
14377;SDS011;7272;53.668;9.578;2024-02-15T16:13:58;13.63;;;12.43;;
14377;SDS011;7272;53.668;9.578;2024-02-15T16:16:59;14.87;;;13.40;;
14377;SDS011;7272;53.668;9.578;2024-02-15T16:20:01;14.53;;;13.07;;
14377;SDS011;7272;53.668;9.578;2024-02-15T16:23:04;13.77;;;12.47;;
14377;SDS011;7272;53.668;9.578;2024-02-15T16:26:07;13.53;;;12.27;;
14377;SDS011;7272;53.668;9.578;2024-02-15T16:29:08;14.83;;;13.30;;
14377;SDS011;7272;53.668;9.578;2024-02-15T16:32:09;13.13;;;12.03;;
14377;SDS011;7272;53.668;9.578;2024-02-15T16:35:11;15.13;;;13.83;;
14377;SDS011;7272;53.668;9.578;2024-02-15T16:38:13;13.17;;;11.93;;
14377;SDS011;7272;53.668;9.578;2024-02-15T16:41:17;11.33;;;10.43;;
14377;SDS011;7272;53.668;9.578;2024-02-15T16:44:18;13.23;;;11.93;;
14377;SDS011;7272;53.668;9.578;2024-02-15T16:47:19;12.73;;;11.60;;
14377;SDS011;7272;53.668;9.578;2024-02-15T16:50:21;13.47;;;12.33;;
14377;SDS011;7272;53.668;9.578;2024-02-15T16:53:22;15.90;;;14.37;;
14377;SDS011;7272;53.668;9.578;2024-02-15T16:56:25;15.43;;;13.97;;
14377;SDS011;7272;53.668;9.578;2024-02-15T16:59:28;14.03;;;12.63;;
14377;SDS011;7272;53.668;9.578;2024-02-15T17:02:32;15.13;;;13.73;;
14377;SDS011;7272;53.668;9.578;2024-02-15T17:05:34;16.97;;;14.80;;
14377;SDS011;7272;53.668;9.578;2024-02-15T17:08:35;13.30;;;12.10;;
14377;SDS011;7272;53.668;9.578;2024-02-15T17:11:38;15.80;;;14.20;;
14377;SDS011;7272;53.668;9.578;2024-02-15T17:14:40;16.13;;;14.60;;
14377;SDS011;7272;53.668;9.578;2024-02-15T17:17:41;16.37;;;14.83;;
14377;SDS011;7272;53.668;9.578;2024-02-15T17:20:42;14.23;;;12.87;;
14377;SDS011;7272;53.668;9.578;2024-02-15T17:23:44;15.90;;;14.27;;
14377;SDS011;7272;53.668;9.578;2024-02-15T17:26:47;13.90;;;12.60;;
14377;SDS011;7272;53.668;9.578;2024-02-15T17:29:48;14.93;;;13.17;;
14377;SDS011;7272;53.668;9.578;2024-02-15T17:32:49;18.10;;;14.77;;
14377;SDS011;7272;53.668;9.578;2024-02-15T17:35:51;21.03;;;16.40;;
14377;SDS011;7272;53.668;9.578;2024-02-15T17:38:53;18.97;;;16.87;;
14377;SDS011;7272;53.668;9.578;2024-02-15T17:41:55;18.43;;;15.77;;
14377;SDS011;7272;53.668;9.578;2024-02-15T17:44:56;17.77;;;14.50;;
14377;SDS011;7272;53.668;9.578;2024-02-15T17:47:57;14.03;;;12.83;;
14377;SDS011;7272;53.668;9.578;2024-02-15T17:50:59;16.07;;;14.43;;
14377;SDS011;7272;53.668;9.578;2024-02-15T17:54:00;14.57;;;13.33;;
14377;SDS011;7272;53.668;9.578;2024-02-15T17:57:02;14.60;;;13.30;;
14377;SDS011;7272;53.668;9.578;2024-02-15T18:00:04;15.70;;;14.20;;
14377;SDS011;7272;53.668;9.578;2024-02-15T18:03:12;13.17;;;12.07;;